COR8 weather

Orangeville/Rosehill Airfield
Ontario, Canada

Public forecast

Using degrees Celsius for public forecast. Weather courtesy of forecast.io.

METAR (pilot weather report)

Closest report is Lester B. Pearson International Airport, 21.7 nm (40.3 km) SE. Retrieved 2019/05/21 11:00 UTC (57 minutes ago):

CYYZ 211100Z VRB06KT 15SM SKC 08/03 A3006 RMK SLP186

TAF (pilot weather forecast)

Closest forecast is Lester B. Pearson International Airport, 21.7 nm (40.3 km) SE. Retrieved 2019/05/21 09:42 UTC (2 hours ago):

TAF CYYZ 210838Z 2109/2212 VRB03KT P6SM SKC BECMG 2111/2113 32015KT BECMG 2122/2124 36012KT FM221100 08005KT P6SM SCT150 BKN250 RMK NXT FCST BY 211200Z